Time;durP1;ratioP1;P1;durP2;ratioP2;P2;SDS_P1;SDS_P2;PMS_P1;PMS_P2;Temp;Humidity;BMP_temperature;BMP_pressure;BME280_temperature;BME280_humidity;BME280_pressure;Samples;Min_cycle;Max_cycle;Signal;HPM_P1;HPM_P2
2022/08/23 00:02:01;;;;;;;0.37;0.37;;;21.90;99.90;;;;;;5088065;28;20629;-80
2022/08/23 00:04:30;;;;;;;0.63;0.63;;;21.90;99.90;;;;;;5082104;28;20654;-80
2022/08/23 00:06:57;;;;;;;0.97;0.97;;;21.80;99.90;;;;;;5080391;28;20256;-80
2022/08/23 00:09:25;;;;;;;0.50;0.50;;;21.80;99.90;;;;;;5082738;28;20719;-80
2022/08/23 00:12:14;;;;;;;0.30;0.30;;;21.80;99.90;;;;;;5097573;28;20704;-81
2022/08/23 00:14:45;;;;;;;1.20;0.63;;;21.70;99.90;;;;;;5086406;28;20185;-80
2022/08/23 00:17:12;;;;;;;2.80;0.33;;;21.70;99.90;;;;;;5100015;28;20200;-80
2022/08/23 00:19:38;;;;;;;0.70;0.70;;;21.60;99.90;;;;;;5093582;28;20183;-80
2022/08/23 00:22:05;;;;;;;0.20;0.20;;;21.60;99.90;;;;;;5093401;28;20183;-80
2022/08/23 00:24:31;;;;;;;0.30;0.30;;;21.60;99.90;;;;;;5080568;28;20216;-80
2022/08/23 00:27:10;;;;;;;0.30;0.30;;;21.50;99.90;;;;;;5099752;28;20241;-80
2022/08/23 00:29:43;;;;;;;0.40;0.40;;;21.40;99.90;;;;;;5106219;28;20219;-80
2022/08/23 00:32:12;;;;;;;0.43;0.37;;;21.40;99.90;;;;;;5092924;28;20219;-80
2022/08/23 00:34:38;;;;;;;0.53;0.53;;;21.40;99.90;;;;;;5091292;28;20294;-80
2022/08/23 00:37:05;;;;;;;0.40;0.40;;;21.30;99.90;;;;;;5089883;28;20211;-81
2022/08/23 00:39:31;;;;;;;0.63;0.40;;;21.30;99.90;;;;;;5087755;28;20184;-80
2022/08/23 00:47:38;;;;;;;0.63;0.63;;;21.30;99.90;;;;;;5092560;28;20184;-81
2022/08/23 00:47:40;;;;;;;0.30;0.30;;;21.30;99.90;;;;;;5087134;28;20579;-80
2022/08/23 00:50:17;;;;;;;0.53;0.40;;;21.20;99.90;;;;;;5101449;28;20614;-80
2022/08/23 00:52:49;;;;;;;1.00;0.80;;;21.10;99.90;;;;;;5095890;28;20186;-80
2022/08/23 00:55:16;;;;;;;0.47;0.47;;;21.10;99.90;;;;;;5101738;28;20268;-80
2022/08/23 00:57:42;;;;;;;0.50;0.50;;;21.00;99.90;;;;;;5100964;28;20220;-80
2022/08/23 01:00:08;;;;;;;0.90;0.67;;;21.00;99.90;;;;;;5095263;28;20180;-80
2022/08/23 01:02:34;;;;;;;0.40;0.40;;;21.00;99.90;;;;;;5098770;28;20218;-80
2022/08/23 01:05:02;;;;;;;0.43;0.30;;;21.00;99.90;;;;;;5098299;28;20263;-81
2022/08/23 01:07:33;;;;;;;0.30;0.30;;;21.00;99.90;;;;;;5102795;28;20714;-80
2022/08/23 01:10:08;;;;;;;1.17;0.60;;;21.00;99.90;;;;;;5089454;28;20175;-80
2022/08/23 01:12:45;;;;;;;0.20;0.20;;;20.90;99.90;;;;;;5097569;28;20185;-80
2022/08/23 01:15:19;;;;;;;0.40;0.40;;;20.80;99.90;;;;;;5090553;28;20224;-80
2022/08/23 01:17:50;;;;;;;0.30;0.30;;;20.70;99.90;;;;;;5087509;28;20196;-80
2022/08/23 01:20:21;;;;;;;0.60;0.60;;;20.80;99.90;;;;;;5093257;28;20261;-80
2022/08/23 01:23:04;;;;;;;0.40;0.40;;;20.70;99.90;;;;;;5095709;28;20176;-80
2022/08/23 01:25:32;;;;;;;0.60;0.50;;;20.70;99.90;;;;;;5099896;28;20184;-81
2022/08/23 01:27:59;;;;;;;0.53;0.53;;;20.70;99.90;;;;;;5093561;28;20554;-80
2022/08/23 01:30:28;;;;;;;0.40;0.40;;;20.60;99.90;;;;;;5105232;28;20206;-80
2022/08/23 01:32:59;;;;;;;0.80;0.60;;;20.60;99.90;;;;;;5084067;28;20238;-80
2022/08/23 01:35:34;;;;;;;0.70;0.70;;;20.60;99.90;;;;;;5082193;28;20935;-80
2022/08/23 01:37:59;;;;;;;0.30;0.30;;;20.50;99.90;;;;;;5100285;28;20191;-80
2022/08/23 01:40:25;;;;;;;0.40;0.40;;;20.50;99.90;;;;;;5092546;28;20195;-80
2022/08/23 01:42:50;;;;;;;0.40;0.40;;;20.40;99.90;;;;;;5100085;28;20180;-80
2022/08/23 01:45:16;;;;;;;0.73;0.50;;;20.50;99.90;;;;;;5086182;28;20208;-80
2022/08/23 01:47:42;;;;;;;0.67;0.53;;;20.50;99.90;;;;;;5098567;28;20212;-80
2022/08/23 01:50:09;;;;;;;0.70;0.70;;;20.40;99.90;;;;;;5094311;28;20199;-80
2022/08/23 01:52:36;;;;;;;0.30;0.30;;;20.50;99.90;;;;;;5085776;28;20212;-81
2022/08/23 01:55:03;;;;;;;0.53;0.53;;;20.60;99.90;;;;;;5091502;28;20187;-80
2022/08/23 01:57:30;;;;;;;0.53;0.53;;;20.60;99.90;;;;;;5091715;28;20280;-80
2022/08/23 01:59:56;;;;;;;0.67;0.67;;;20.70;99.90;;;;;;5096722;28;20550;-80
2022/08/23 02:02:22;;;;;;;0.30;0.30;;;20.70;99.90;;;;;;5092014;28;20641;-80
2022/08/23 02:04:47;;;;;;;0.43;0.43;;;20.60;99.90;;;;;;5095932;28;20280;-80
2022/08/23 02:07:13;;;;;;;0.23;0.23;;;20.60;99.90;;;;;;5095262;28;20200;-80
2022/08/23 02:09:38;;;;;;;0.50;0.50;;;20.60;99.90;;;;;;5091947;28;20181;-80
2022/08/23 02:12:04;;;;;;;0.53;0.53;;;20.40;99.90;;;;;;5089237;28;20211;-80
2022/08/23 02:14:30;;;;;;;0.57;0.57;;;20.40;99.90;;;;;;5090979;28;20755;-80
2022/08/23 02:16:57;;;;;;;0.60;0.60;;;20.40;99.90;;;;;;5100561;28;20202;-80
2022/08/23 02:19:23;;;;;;;0.50;0.50;;;20.40;99.90;;;;;;5084262;28;20584;-80
2022/08/23 02:21:49;;;;;;;0.40;0.40;;;20.30;99.90;;;;;;5102763;28;20183;-80
2022/08/23 02:24:17;;;;;;;0.40;0.40;;;20.20;99.90;;;;;;5095563;28;20180;-80
2022/08/23 02:26:49;;;;;;;0.63;0.63;;;20.20;99.90;;;;;;5089512;28;20200;-80
2022/08/23 02:29:16;;;;;;;0.40;0.40;;;20.10;99.90;;;;;;5101199;28;20179;-81
2022/08/23 02:31:43;;;;;;;0.33;0.33;;;20.10;99.90;;;;;;5092729;28;20662;-80
2022/08/23 02:34:12;;;;;;;0.50;0.50;;;20.10;99.90;;;;;;5085402;28;20233;-80
2022/08/23 02:36:38;;;;;;;0.30;0.30;;;20.10;99.90;;;;;;5090352;28;20197;-80
2022/08/23 02:39:05;;;;;;;0.40;0.40;;;20.20;99.90;;;;;;5098585;28;20185;-80
2022/08/23 02:41:31;;;;;;;0.43;0.43;;;20.20;99.90;;;;;;5095384;28;20207;-80
2022/08/23 02:43:57;;;;;;;0.33;0.30;;;20.20;99.90;;;;;;5090006;28;20177;-80
2022/08/23 02:46:24;;;;;;;1.07;0.57;;;20.20;99.90;;;;;;5090680;28;20191;-80
2022/08/23 02:48:50;;;;;;;0.80;0.80;;;20.10;99.90;;;;;;5100784;28;20254;-80
2022/08/23 02:51:16;;;;;;;0.97;0.97;;;20.10;99.90;;;;;;5098741;28;20681;-80
2022/08/23 02:53:42;;;;;;;0.70;0.70;;;20.10;99.90;;;;;;5096322;28;20323;-80
2022/08/23 02:56:08;;;;;;;0.50;0.50;;;20.10;99.90;;;;;;5087918;28;20264;-80
2022/08/23 02:58:34;;;;;;;0.90;0.60;;;20.10;99.90;;;;;;5094035;28;20230;-80
2022/08/23 03:01:00;;;;;;;0.40;0.40;;;20.00;99.90;;;;;;5097998;28;20176;-80
2022/08/23 03:03:26;;;;;;;0.47;0.43;;;19.90;99.90;;;;;;5093543;28;20183;-80
2022/08/23 03:05:52;;;;;;;0.47;0.47;;;19.90;99.90;;;;;;5110128;28;20186;-80
2022/08/23 03:08:19;;;;;;;0.30;0.30;;;20.00;99.90;;;;;;5087635;28;20297;-80
2022/08/23 03:10:47;;;;;;;0.37;0.37;;;20.00;99.90;;;;;;5107296;28;20267;-80
2022/08/23 03:13:13;;;;;;;1.17;0.57;;;19.90;99.90;;;;;;5081165;28;20169;-80
2022/08/23 03:15:40;;;;;;;5.40;0.60;;;19.90;99.90;;;;;;5103852;28;20179;-80
2022/08/23 03:18:06;;;;;;;0.33;0.33;;;19.70;99.90;;;;;;5091669;28;20215;-80
2022/08/23 03:20:32;;;;;;;0.60;0.60;;;19.60;99.90;;;;;;5095829;28;20203;-80
2022/08/23 03:22:58;;;;;;;0.40;0.40;;;19.60;99.90;;;;;;5099614;28;20634;-80
2022/08/23 03:25:23;;;;;;;0.60;0.60;;;19.50;99.90;;;;;;5097700;28;20262;-80
2022/08/23 03:27:49;;;;;;;1.70;0.37;;;19.60;99.90;;;;;;5085894;28;20208;-80
2022/08/23 03:30:14;;;;;;;0.57;0.40;;;19.60;99.90;;;;;;5109934;28;20168;-80
2022/08/23 03:32:40;;;;;;;0.30;0.30;;;19.60;99.90;;;;;;5082045;28;20630;-80
2022/08/23 03:35:06;;;;;;;0.47;0.40;;;19.60;99.90;;;;;;5080074;28;20176;-81
2022/08/23 03:37:32;;;;;;;0.40;0.40;;;19.60;99.90;;;;;;5096848;28;20569;-80
2022/08/23 03:39:57;;;;;;;0.33;0.23;;;19.70;99.90;;;;;;5088498;28;20262;-80
2022/08/23 03:42:24;;;;;;;0.40;0.40;;;19.70;99.90;;;;;;5101808;28;20192;-80
2022/08/23 03:44:49;;;;;;;0.30;0.30;;;19.80;99.90;;;;;;5091335;28;20185;-80
2022/08/23 03:47:15;;;;;;;0.30;0.30;;;19.80;99.90;;;;;;5104651;28;20673;-80
2022/08/23 03:49:40;;;;;;;0.37;0.27;;;19.90;99.90;;;;;;5102411;28;20212;-80
2022/08/23 03:52:06;;;;;;;0.50;0.43;;;19.90;99.90;;;;;;5094609;28;20278;-81
2022/08/23 03:54:32;;;;;;;0.60;0.50;;;19.90;99.90;;;;;;5106456;28;20188;-80
2022/08/23 03:57:02;;;;;;;0.43;0.43;;;19.90;99.90;;;;;;5098067;28;20200;-80
2022/08/23 03:59:28;;;;;;;0.70;0.70;;;19.70;99.90;;;;;;5103027;28;20169;-80
2022/08/23 04:01:54;;;;;;;0.63;0.63;;;19.50;99.90;;;;;;5086136;28;20542;-80
2022/08/23 04:04:21;;;;;;;0.73;0.40;;;19.40;99.90;;;;;;5099775;28;20688;-80
2022/08/23 04:06:47;;;;;;;0.67;0.50;;;19.20;99.90;;;;;;5089988;28;21187;-80
2022/08/23 04:09:14;;;;;;;0.37;0.37;;;19.20;99.90;;;;;;5079811;28;20265;-80
2022/08/23 04:11:42;;;;;;;0.40;0.40;;;19.20;99.90;;;;;;5102196;28;20290;-80
2022/08/23 04:14:08;;;;;;;0.60;0.60;;;19.10;99.90;;;;;;5085088;28;20187;-79
2022/08/23 04:16:39;;;;;;;1.03;0.63;;;19.10;99.90;;;;;;5081546;28;20200;-79
2022/08/23 04:19:06;;;;;;;0.60;0.53;;;19.00;99.90;;;;;;5094605;28;20176;-79
2022/08/23 04:21:32;;;;;;;0.87;0.87;;;19.20;99.90;;;;;;5103989;28;20180;-79
2022/08/23 04:23:57;;;;;;;0.50;0.50;;;19.30;99.90;;;;;;5100902;28;20203;-79
2022/08/23 04:26:23;;;;;;;0.63;0.50;;;19.30;99.90;;;;;;5086265;28;20183;-79
2022/08/23 04:28:48;;;;;;;0.40;0.40;;;19.20;99.90;;;;;;5093655;28;20555;-79
2022/08/23 04:31:16;;;;;;;0.37;0.37;;;19.30;99.90;;;;;;5102100;28;20557;-80
2022/08/23 04:33:41;;;;;;;0.83;0.70;;;19.40;99.90;;;;;;5085214;28;20189;-80
2022/08/23 04:36:07;;;;;;;0.40;0.40;;;19.50;99.90;;;;;;5092309;28;20177;-79
2022/08/23 04:38:32;;;;;;;0.40;0.40;;;19.50;99.90;;;;;;5103166;28;20210;-79
2022/08/23 04:43:45;;;;;;;0.60;0.53;;;19.60;99.90;;;;;;5108635;28;20595;-79
2022/08/23 04:46:15;;;;;;;0.30;0.30;;;19.70;99.90;;;;;;5082934;28;20233;-80
2022/08/23 04:48:41;;;;;;;0.33;0.33;;;19.80;99.90;;;;;;5110957;28;20628;-80
2022/08/23 04:51:07;;;;;;;0.43;0.43;;;19.80;99.90;;;;;;5091706;27;20200;-80
2022/08/23 04:53:34;;;;;;;0.40;0.40;;;19.90;99.90;;;;;;5088875;28;20234;-80
2022/08/23 04:56:01;;;;;;;0.33;0.33;;;20.00;99.90;;;;;;5090597;28;20196;-80
2022/08/23 04:58:28;;;;;;;0.60;0.60;;;20.00;99.90;;;;;;5093257;28;20238;-80
2022/08/23 05:00:53;;;;;;;0.23;0.23;;;20.10;99.90;;;;;;5096530;28;20237;-80
2022/08/23 05:03:19;;;;;;;0.47;0.47;;;20.10;99.90;;;;;;5105905;28;20196;-80
2022/08/23 05:05:45;;;;;;;0.40;0.40;;;20.10;99.90;;;;;;5107043;28;20188;-80
2022/08/23 05:08:11;;;;;;;0.23;0.23;;;20.20;99.90;;;;;;5085225;28;20215;-80
2022/08/23 05:10:36;;;;;;;0.87;0.80;;;20.20;99.90;;;;;;5088079;28;20693;-80
2022/08/23 05:13:02;;;;;;;0.60;0.60;;;20.30;99.90;;;;;;5088974;28;20245;-80
2022/08/23 05:15:28;;;;;;;0.40;0.40;;;20.40;99.90;;;;;;5083429;28;20323;-80
2022/08/23 05:17:53;;;;;;;0.50;0.50;;;20.30;99.90;;;;;;5084929;28;20234;-80
2022/08/23 05:20:19;;;;;;;0.93;0.60;;;20.10;99.90;;;;;;5088736;28;20216;-80
2022/08/23 05:22:44;;;;;;;0.30;0.30;;;19.90;99.90;;;;;;5091650;28;20713;-80
2022/08/23 05:25:10;;;;;;;3.23;0.63;;;19.80;99.90;;;;;;5095128;28;20196;-81
2022/08/23 05:27:36;;;;;;;1.80;1.47;;;19.70;99.90;;;;;;5097264;28;20208;-81
2022/08/23 05:30:03;;;;;;;0.90;0.83;;;19.60;99.90;;;;;;5095320;28;20272;-82
2022/08/23 05:32:29;;;;;;;0.43;0.43;;;19.60;99.90;;;;;;5088111;28;20216;-79
2022/08/23 05:34:54;;;;;;;0.33;0.33;;;19.60;99.90;;;;;;5087820;28;20175;-80
2022/08/23 05:37:20;;;;;;;0.43;0.37;;;19.80;99.90;;;;;;5083683;28;20207;-80
2022/08/23 05:39:45;;;;;;;1.27;0.50;;;19.80;99.90;;;;;;5084575;28;20196;-80
2022/08/23 05:42:14;;;;;;;0.77;0.73;;;19.80;99.90;;;;;;5085383;28;20238;-80
2022/08/23 05:44:39;;;;;;;1.03;0.53;;;19.80;99.90;;;;;;5085910;28;20189;-80
2022/08/23 05:47:06;;;;;;;0.30;0.30;;;19.90;99.90;;;;;;5095971;28;20230;-80
2022/08/23 05:49:35;;;;;;;0.40;0.40;;;20.10;99.90;;;;;;5098038;28;20768;-80
2022/08/23 05:52:03;;;;;;;1.30;0.90;;;20.30;99.90;;;;;;5088977;28;20284;-80
2022/08/23 05:54:28;;;;;;;0.63;0.40;;;20.40;99.90;;;;;;5099798;28;20234;-80
2022/08/23 05:56:55;;;;;;;0.40;0.40;;;20.70;99.90;;;;;;5087391;28;20290;-80
2022/08/23 05:59:20;;;;;;;0.57;0.50;;;20.90;99.90;;;;;;5080629;28;20192;-80
2022/08/23 06:01:46;;;;;;;0.30;0.30;;;21.10;99.90;;;;;;5089620;28;20188;-80
2022/08/23 06:04:12;;;;;;;0.37;0.30;;;21.20;99.90;;;;;;5079524;28;20612;-80
2022/08/23 06:06:39;;;;;;;0.40;0.40;;;21.40;99.90;;;;;;5087088;28;20197;-80
2022/08/23 06:09:06;;;;;;;1.00;0.90;;;21.50;99.90;;;;;;5082509;28;20200;-80
2022/08/23 06:11:32;;;;;;;1.37;0.70;;;21.30;99.90;;;;;;5084108;28;20200;-80
2022/08/23 06:14:00;;;;;;;0.37;0.37;;;21.10;99.90;;;;;;5089994;28;20184;-80
2022/08/23 06:16:32;;;;;;;0.50;0.50;;;21.20;99.90;;;;;;5088219;28;20580;-80
2022/08/23 06:19:01;;;;;;;0.60;0.60;;;21.20;99.90;;;;;;5077181;28;20211;-80
2022/08/23 06:21:27;;;;;;;0.67;0.53;;;21.20;99.90;;;;;;5090029;28;20219;-80
2022/08/23 06:23:52;;;;;;;0.90;0.40;;;21.40;99.90;;;;;;5088341;28;20208;-80
2022/08/23 06:26:24;;;;;;;0.60;0.60;;;21.80;99.90;;;;;;5090583;28;20197;-80
2022/08/23 06:28:54;;;;;;;0.50;0.50;;;21.80;99.90;;;;;;5098063;28;20184;-80
2022/08/23 06:34:07;;;;;;;0.67;0.67;;;22.30;99.90;;;;;;5082904;28;20242;-80
2022/08/23 06:36:33;;;;;;;0.40;0.40;;;22.50;99.90;;;;;;5094775;28;20191;-80
2022/08/23 06:38:59;;;;;;;0.40;0.40;;;22.70;99.90;;;;;;5094161;28;20184;-80
2022/08/23 06:41:25;;;;;;;0.40;0.40;;;22.80;99.90;;;;;;5075082;28;20181;-80
2022/08/23 06:43:50;;;;;;;0.87;0.50;;;22.50;99.90;;;;;;5084907;28;20184;-81
2022/08/23 06:46:20;;;;;;;0.87;0.87;;;22.30;99.90;;;;;;5082647;28;20185;-80
2022/08/23 06:48:46;;;;;;;0.60;0.40;;;22.50;99.90;;;;;;5088732;28;20228;-80
2022/08/23 06:51:33;;;;;;;0.37;0.30;;;22.80;99.90;;;;;;5087951;28;20261;-80
2022/08/23 06:54:01;;;;;;;0.70;0.70;;;22.90;99.90;;;;;;5091322;28;20191;-81
2022/08/23 06:56:28;;;;;;;0.90;0.83;;;22.20;99.90;;;;;;5083020;28;20211;-80
2022/08/23 06:58:54;;;;;;;1.00;0.60;;;22.20;99.90;;;;;;5089994;28;20184;-80
2022/08/23 07:01:36;;;;;;;0.40;0.40;;;22.60;99.90;;;;;;5080939;28;20187;-80
2022/08/23 07:04:04;;;;;;;0.50;0.50;;;23.00;99.90;;;;;;5080248;28;20180;-80
2022/08/23 07:06:30;;;;;;;0.40;0.40;;;23.30;99.90;;;;;;5078630;28;20196;-80
2022/08/23 07:08:57;;;;;;;3.33;1.63;;;23.70;99.90;;;;;;5081055;28;20175;-79
2022/08/23 07:11:24;;;;;;;0.23;0.23;;;23.70;99.90;;;;;;5079707;28;20200;-80
2022/08/23 07:13:51;;;;;;;0.50;0.50;;;24.00;99.90;;;;;;5080812;28;20185;-80
2022/08/23 07:16:18;;;;;;;0.40;0.40;;;24.30;99.90;;;;;;5089865;28;20241;-80
2022/08/23 07:18:48;;;;;;;0.63;0.63;;;23.90;99.90;;;;;;5081419;28;20181;-80
2022/08/23 07:21:14;;;;;;;0.40;0.40;;;23.60;99.90;;;;;;5090867;28;20172;-80
2022/08/23 07:23:42;;;;;;;0.40;0.40;;;24.00;99.90;;;;;;5089884;28;20216;-80
2022/08/23 07:26:10;;;;;;;1.23;0.50;;;24.30;99.90;;;;;;5090335;28;20680;-80
2022/08/23 07:28:37;;;;;;;2.53;0.60;;;24.50;99.90;;;;;;5076749;28;20207;-80
2022/08/23 07:31:25;;;;;;;2.13;0.60;;;24.10;99.90;;;;;;5090350;28;20203;-80
2022/08/23 07:33:52;;;;;;;0.70;0.70;;;24.50;99.90;;;;;;5082334;28;20184;-80
2022/08/23 07:36:21;;;;;;;0.47;0.47;;;24.90;99.90;;;;;;5089960;28;20179;-80
2022/08/23 07:38:47;;;;;;;0.70;0.70;;;25.20;99.90;;;;;;5091927;28;20638;-80
2022/08/23 07:41:15;;;;;;;0.60;0.60;;;25.40;99.90;;;;;;5084172;28;20169;-80
2022/08/23 07:43:40;;;;;;;0.97;0.97;;;25.60;99.90;;;;;;5086413;28;20664;-80
2022/08/23 07:46:07;;;;;;;0.87;0.50;;;25.80;99.90;;;;;;5083172;28;20184;-80
2022/08/23 07:48:33;;;;;;;0.87;0.57;;;25.70;99.90;;;;;;5084979;28;20231;-80
2022/08/23 07:51:03;;;;;;;5.10;0.77;;;26.00;99.90;;;;;;5080569;28;20200;-80
2022/08/23 07:53:29;;;;;;;0.30;0.30;;;25.20;99.90;;;;;;5086972;28;20211;-80
2022/08/23 07:55:55;;;;;;;1.33;1.23;;;25.00;99.90;;;;;;5084906;28;20223;-80
2022/08/23 07:58:23;;;;;;;0.83;0.83;;;24.80;99.90;;;;;;5088076;28;20307;-80
2022/08/23 08:00:49;;;;;;;2.50;0.50;;;24.80;99.90;;;;;;5087523;28;20274;-80
2022/08/23 08:03:15;;;;;;;0.93;0.77;;;25.40;99.90;;;;;;5091355;28;20191;-80
2022/08/23 08:05:41;;;;;;;0.47;0.47;;;25.50;99.90;;;;;;5086962;28;20207;-80
2022/08/23 08:08:07;;;;;;;0.30;0.30;;;25.60;99.90;;;;;;5089084;28;20674;-80
2022/08/23 08:10:39;;;;;;;0.40;0.40;;;26.10;99.90;;;;;;5083979;28;20237;-80
2022/08/23 08:13:06;;;;;;;0.50;0.50;;;26.40;99.90;;;;;;5083093;28;20177;-80
2022/08/23 08:15:32;;;;;;;0.50;0.47;;;26.40;99.90;;;;;;5084831;28;20180;-80
2022/08/23 08:17:58;;;;;;;0.37;0.37;;;26.10;99.90;;;;;;5092869;28;20552;-79
2022/08/23 08:20:25;;;;;;;1.50;1.10;;;26.40;99.90;;;;;;5089310;28;20177;-80
2022/08/23 08:22:51;;;;;;;0.60;0.60;;;26.50;99.90;;;;;;5088212;28;20653;-80
2022/08/23 08:25:16;;;;;;;1.47;1.00;;;26.80;99.90;;;;;;5086435;28;20263;-80
2022/08/23 08:27:43;;;;;;;1.37;0.63;;;26.60;99.90;;;;;;5082233;28;20208;-80
2022/08/23 08:30:09;;;;;;;0.70;0.70;;;26.90;99.90;;;;;;5091281;28;20177;-80
2022/08/23 08:32:36;;;;;;;0.60;0.60;;;27.10;99.90;;;;;;5088000;28;20235;-80
2022/08/23 08:35:01;;;;;;;0.77;0.70;;;27.30;99.90;;;;;;5083297;28;20712;-81
2022/08/23 08:37:27;;;;;;;0.60;0.60;;;27.10;99.90;;;;;;5081171;28;20201;-81
2022/08/23 08:39:53;;;;;;;1.73;1.63;;;27.20;99.90;;;;;;5089065;28;20199;-80
2022/08/23 08:42:50;;;;;;;0.43;0.43;;;27.40;99.90;;;;;;5081102;28;20649;-80
2022/08/23 08:45:22;;;;;;;0.60;0.60;;;27.70;99.90;;;;;;5077579;28;20176;-80
2022/08/23 08:48:00;;;;;;;0.57;0.57;;;27.80;99.90;;;;;;5080840;28;20200;-81
2022/08/23 08:50:40;;;;;;;0.70;0.70;;;27.90;99.90;;;;;;5081336;28;20649;-81
2022/08/23 08:53:11;;;;;;;1.27;0.70;;;27.70;99.90;;;;;;5080089;28;20292;-80
2022/08/23 08:55:42;;;;;;;1.77;1.33;;;27.70;99.90;;;;;;5086223;28;20195;-81
2022/08/23 08:58:17;;;;;;;0.60;0.60;;;28.00;99.90;;;;;;5096944;28;20204;-80
2022/08/23 09:00:42;;;;;;;0.50;0.50;;;28.10;99.90;;;;;;5084423;28;20556;-80
2022/08/23 09:03:13;;;;;;;1.50;1.23;;;28.10;99.90;;;;;;5083354;28;20251;-81
2022/08/23 09:05:51;;;;;;;0.57;0.57;;;26.90;99.90;;;;;;5097111;28;20190;-80
2022/08/23 09:08:50;;;;;;;1.05;0.80;;;27.10;99.90;;;;;;5082768;28;20197;-80
2022/08/23 09:11:49;;;;;;;0.85;0.77;;;27.60;99.90;;;;;;5088062;28;20200;-80
2022/08/23 09:14:29;;;;;;;0.47;0.47;;;27.90;99.90;;;;;;5086849;28;20616;-81
2022/08/23 09:17:03;;;;;;;0.93;0.82;;;28.30;99.90;;;;;;5093348;28;20665;-80
2022/08/23 09:19:32;;;;;;;1.63;1.10;;;28.40;99.90;;;;;;5087789;28;20202;-81
2022/08/23 09:22:15;;;;;;;2.53;0.90;;;28.30;99.90;;;;;;5085815;28;20349;-81
2022/08/23 09:24:41;;;;;;;1.10;0.98;;;28.20;99.90;;;;;;5092496;28;20184;-81
2022/08/23 09:27:10;;;;;;;0.90;0.90;;;27.60;99.90;;;;;;5088210;28;20569;-81
2022/08/23 09:29:38;;;;;;;0.47;0.47;;;27.60;99.90;;;;;;5093229;28;20268;-81
2022/08/23 09:32:34;;;;;;;1.00;0.98;;;28.00;99.90;;;;;;5088873;28;20200;-81
2022/08/23 09:35:10;;;;;;;1.20;0.95;;;28.30;99.90;;;;;;5076437;28;20172;-80
2022/08/23 09:37:48;;;;;;;0.80;0.75;;;28.70;99.90;;;;;;5095528;28;20208;-81
2022/08/23 09:40:16;;;;;;;1.20;0.52;;;28.00;99.90;;;;;;5092438;28;20215;-81
2022/08/23 09:42:42;;;;;;;0.45;0.45;;;27.80;99.90;;;;;;5082234;28;20189;-81
2022/08/23 09:45:27;;;;;;;0.60;0.43;;;28.30;99.90;;;;;;5085688;28;20215;-81
2022/08/23 09:47:52;;;;;;;0.88;0.88;;;28.50;99.90;;;;;;5088542;28;20254;-81
2022/08/23 09:50:49;;;;;;;0.70;0.63;;;28.60;99.90;;;;;;5086540;28;20231;-81
2022/08/23 09:53:25;;;;;;;0.50;0.50;;;29.10;99.90;;;;;;5083753;28;20183;-80
2022/08/23 09:55:53;;;;;;;0.57;0.57;;;29.20;99.90;;;;;;5089481;28;20179;-80
2022/08/23 09:58:35;;;;;;;0.57;0.57;;;29.50;99.90;;;;;;5092052;28;20633;-81
2022/08/23 10:01:12;;;;;;;0.82;0.80;;;29.80;99.90;;;;;;5085998;28;20275;-80
2022/08/23 10:03:40;;;;;;;0.88;0.82;;;29.80;99.90;;;;;;5088441;28;20263;-79
2022/08/23 10:06:08;;;;;;;1.05;1.05;;;29.90;99.90;;;;;;5087956;28;20188;-78
2022/08/23 10:08:37;;;;;;;0.90;0.90;;;29.90;99.90;;;;;;5086920;28;20244;-78
2022/08/23 10:11:37;;;;;;;1.20;1.10;;;29.80;99.90;;;;;;5090332;28;20200;-77
2022/08/23 10:14:03;;;;;;;0.52;0.52;;;29.90;99.90;;;;;;5089095;28;20185;-78
2022/08/23 10:16:39;;;;;;;0.52;0.52;;;30.00;99.90;;;;;;5090407;28;20227;-78
2022/08/23 10:19:43;;;;;;;0.60;0.60;;;29.90;99.90;;;;;;5084480;28;20180;-81
2022/08/23 10:22:18;;;;;;;0.70;0.68;;;29.70;99.90;;;;;;5082151;28;20184;-80
2022/08/23 10:24:51;;;;;;;0.52;0.52;;;30.10;99.90;;;;;;5088486;28;20205;-81
2022/08/23 10:30:56;;;;;;;0.52;0.52;;;30.60;99.90;;;;;;5082281;28;20549;-80
2022/08/23 10:33:33;;;;;;;1.13;1.05;;;30.40;99.90;;;;;;5082974;28;20181;-86
2022/08/23 10:36:06;;;;;;;0.80;0.80;;;29.50;99.90;;;;;;5082409;28;20596;-81
2022/08/23 10:38:36;;;;;;;1.20;0.90;;;29.70;99.90;;;;;;5095032;28;20227;-81
2022/08/23 10:41:24;;;;;;;0.88;0.70;;;30.20;99.90;;;;;;5090455;28;20653;-79
2022/08/23 10:44:03;;;;;;;2.15;0.90;;;30.20;99.90;;;;;;5084578;28;20665;-78
2022/08/23 10:46:35;;;;;;;0.50;0.50;;;30.20;99.90;;;;;;5092751;28;20272;-79
2022/08/23 10:49:02;;;;;;;0.35;0.35;;;30.40;99.90;;;;;;5079364;28;20287;-80
2022/08/23 10:51:33;;;;;;;4.38;1.20;;;30.80;99.90;;;;;;5082222;28;20204;-80
2022/08/23 10:54:06;;;;;;;1.40;1.10;;;31.00;99.90;;;;;;5092986;28;20172;-80
2022/08/23 10:56:34;;;;;;;0.55;0.55;;;30.50;99.90;;;;;;5074209;28;20173;-79
2022/08/23 10:59:02;;;;;;;0.65;0.65;;;30.80;99.90;;;;;;5095653;28;20179;-79
2022/08/23 11:01:43;;;;;;;0.88;0.70;;;30.90;99.90;;;;;;5086223;28;20215;-80
2022/08/23 11:04:24;;;;;;;0.88;0.88;;;31.20;99.90;;;;;;5094991;28;20164;-80
2022/08/23 11:06:53;;;;;;;0.60;0.60;;;31.30;99.90;;;;;;5086572;28;20213;-80
2022/08/23 11:09:18;;;;;;;0.70;0.70;;;31.40;99.90;;;;;;5091105;28;20248;-80
2022/08/23 11:12:09;;;;;;;1.02;0.93;;;31.40;99.90;;;;;;5081128;28;20669;-80
2022/08/23 11:14:56;;;;;;;0.82;0.82;;;31.60;99.90;;;;;;5089786;28;20201;-80
2022/08/23 11:17:48;;;;;;;1.52;0.70;;;31.50;99.90;;;;;;5087714;28;20196;-80
2022/08/23 11:20:49;;;;;;;0.90;0.90;;;31.60;99.90;;;;;;5081677;28;20191;-80
2022/08/23 11:23:37;;;;;;;0.60;0.60;;;31.40;99.90;;;;;;5083412;28;20191;-80
2022/08/23 11:26:06;;;;;;;1.48;0.90;;;31.60;99.90;;;;;;5089442;28;20565;-80
2022/08/23 11:28:45;;;;;;;1.52;1.10;;;31.70;99.90;;;;;;5092680;28;20223;-80
2022/08/23 11:31:11;;;;;;;0.55;0.55;;;31.90;99.90;;;;;;5070905;28;20232;-80
2022/08/23 11:33:51;;;;;;;0.55;0.55;;;32.10;99.90;;;;;;5083895;28;20227;-80
2022/08/23 11:36:20;;;;;;;1.00;1.00;;;31.90;99.90;;;;;;5083325;28;20246;-80
2022/08/23 11:38:46;;;;;;;0.40;0.40;;;32.20;99.90;;;;;;5078519;28;20204;-80
2022/08/23 11:41:17;;;;;;;0.80;0.80;;;32.30;99.90;;;;;;5081449;28;20546;-80
2022/08/23 11:43:46;;;;;;;0.95;0.90;;;32.30;99.90;;;;;;5089984;28;20181;-80
2022/08/23 11:46:13;;;;;;;0.68;0.68;;;31.40;99.90;;;;;;5079780;28;20188;-80
2022/08/23 11:48:42;;;;;;;1.63;0.65;;;31.40;99.90;;;;;;5092271;28;20217;-80
2022/08/23 11:51:27;;;;;;;1.02;1.02;;;31.80;99.90;;;;;;5087273;28;20678;-80
2022/08/23 11:54:09;;;;;;;1.63;1.10;;;32.10;99.90;;;;;;5099163;28;20210;-80
2022/08/23 11:56:38;;;;;;;0.70;0.70;;;32.30;99.90;;;;;;5080283;28;20204;-80
2022/08/23 11:59:33;;;;;;;1.10;1.10;;;32.30;99.90;;;;;;5090623;28;20662;-80
2022/08/23 12:02:31;;;;;;;1.42;0.70;;;32.10;99.90;;;;;;5077654;28;20729;-81
2022/08/23 12:05:01;;;;;;;1.10;0.82;;;32.00;99.90;;;;;;5088455;28;20207;-80
2022/08/23 12:07:51;;;;;;;2.08;1.98;;;32.30;99.90;;;;;;5089362;28;20279;-80
2022/08/23 12:10:42;;;;;;;0.80;0.80;;;32.30;99.90;;;;;;5101770;28;20172;-80
2022/08/23 12:13:18;;;;;;;1.13;0.77;;;32.60;99.90;;;;;;5088391;28;20181;-80
2022/08/23 12:16:08;;;;;;;1.08;1.00;;;32.30;99.90;;;;;;5109637;28;20179;-80
2022/08/23 12:18:37;;;;;;;0.70;0.70;;;31.80;99.90;;;;;;5094498;28;20196;-80
2022/08/23 12:21:08;;;;;;;0.68;0.68;;;31.20;99.90;;;;;;5094467;28;20710;-80
2022/08/23 12:23:46;;;;;;;1.25;0.88;;;31.50;99.90;;;;;;5090686;28;21039;-80
2022/08/23 12:26:25;;;;;;;0.63;0.57;;;31.60;99.90;;;;;;5093965;28;20199;-80
2022/08/23 12:28:56;;;;;;;1.30;0.75;;;31.50;99.90;;;;;;5087043;28;20573;-80
2022/08/23 12:31:33;;;;;;;1.48;1.38;;;31.70;99.90;;;;;;5092656;28;20615;-80
2022/08/23 12:34:17;;;;;;;1.35;0.82;;;31.30;99.90;;;;;;5082574;28;20177;-80
2022/08/23 12:37:01;;;;;;;0.80;0.80;;;31.40;99.90;;;;;;5093754;28;20292;-81
2022/08/23 12:39:39;;;;;;;1.42;0.90;;;31.40;99.90;;;;;;5083100;28;20185;-80
2022/08/23 12:42:22;;;;;;;0.88;0.70;;;31.90;99.90;;;;;;5085671;28;20563;-80
2022/08/23 12:45:06;;;;;;;7.53;1.10;;;32.30;99.90;;;;;;5100751;28;20180;-80
2022/08/23 12:47:33;;;;;;;1.20;1.15;;;32.50;99.90;;;;;;5081922;28;20208;-80
2022/08/23 12:50:13;;;;;;;0.80;0.80;;;32.40;99.90;;;;;;5100806;28;20202;-80
2022/08/23 12:52:39;;;;;;;0.82;0.82;;;32.60;99.90;;;;;;5094182;28;20723;-80
2022/08/23 12:55:14;;;;;;;0.77;0.68;;;32.90;99.90;;;;;;5097580;28;20187;-80
2022/08/23 12:57:42;;;;;;;0.82;0.60;;;33.10;99.90;;;;;;5088826;28;20208;-80
2022/08/23 13:00:17;;;;;;;1.23;1.13;;;33.30;99.50;;;;;;5090987;28;20195;-80
2022/08/23 13:03:04;;;;;;;0.55;0.55;;;33.40;99.50;;;;;;5098323;28;20183;-80
2022/08/23 13:05:59;;;;;;;0.57;0.57;;;33.00;99.60;;;;;;5093411;28;20188;-80
2022/08/23 13:08:41;;;;;;;0.75;0.75;;;33.20;99.50;;;;;;5080401;28;20585;-80
2022/08/23 13:11:08;;;;;;;0.50;0.43;;;32.70;98.80;;;;;;5100036;27;20289;-80
2022/08/23 13:13:36;;;;;;;0.77;0.77;;;32.90;99.50;;;;;;5096307;28;20181;-80
2022/08/23 13:16:40;;;;;;;0.52;0.52;;;33.10;99.00;;;;;;5088398;28;20202;-80
2022/08/23 13:19:14;;;;;;;0.57;0.52;;;33.10;99.30;;;;;;5093060;28;20175;-80